sensor_id;sensor_type;location;lat;lon;timestamp;P1;durP1;ratioP1;P2;durP2;ratioP2
23720;SDS011;42950;52.134;5.578;2023-08-06T00:02:25;6.60;;;6.00;;
23720;SDS011;42950;52.134;5.578;2023-08-06T00:04:51;9.35;;;6.45;;
23720;SDS011;42950;52.134;5.578;2023-08-06T00:07:18;6.45;;;5.85;;
23720;SDS011;42950;52.134;5.578;2023-08-06T00:09:44;6.25;;;5.57;;
23720;SDS011;42950;52.134;5.578;2023-08-06T00:12:10;6.00;;;5.50;;
23720;SDS011;42950;52.134;5.578;2023-08-06T00:14:35;7.47;;;5.88;;
23720;SDS011;42950;52.134;5.578;2023-08-06T00:17:01;7.10;;;6.40;;
23720;SDS011;42950;52.134;5.578;2023-08-06T00:19:27;6.82;;;6.13;;
23720;SDS011;42950;52.134;5.578;2023-08-06T00:21:52;7.78;;;6.93;;
23720;SDS011;42950;52.134;5.578;2023-08-06T00:24:18;7.13;;;6.35;;
23720;SDS011;42950;52.134;5.578;2023-08-06T00:26:45;7.07;;;6.38;;
23720;SDS011;42950;52.134;5.578;2023-08-06T00:29:10;8.68;;;7.00;;
23720;SDS011;42950;52.134;5.578;2023-08-06T00:31:36;8.80;;;7.95;;
23720;SDS011;42950;52.134;5.578;2023-08-06T00:34:01;10.00;;;8.45;;
23720;SDS011;42950;52.134;5.578;2023-08-06T00:36:27;10.18;;;8.00;;
23720;SDS011;42950;52.134;5.578;2023-08-06T00:38:53;10.10;;;7.75;;
23720;SDS011;42950;52.134;5.578;2023-08-06T00:41:18;8.93;;;8.02;;
23720;SDS011;42950;52.134;5.578;2023-08-06T00:43:45;9.57;;;8.25;;
23720;SDS011;42950;52.134;5.578;2023-08-06T00:46:11;12.65;;;9.18;;
23720;SDS011;42950;52.134;5.578;2023-08-06T00:48:38;11.95;;;8.23;;
23720;SDS011;42950;52.134;5.578;2023-08-06T00:51:04;10.52;;;9.27;;
23720;SDS011;42950;52.134;5.578;2023-08-06T00:53:31;9.55;;;8.60;;
23720;SDS011;42950;52.134;5.578;2023-08-06T00:55:57;11.88;;;9.98;;
23720;SDS011;42950;52.134;5.578;2023-08-06T00:58:23;11.82;;;9.48;;
23720;SDS011;42950;52.134;5.578;2023-08-06T01:00:49;10.18;;;9.13;;
23720;SDS011;42950;52.134;5.578;2023-08-06T01:03:15;10.98;;;9.82;;
23720;SDS011;42950;52.134;5.578;2023-08-06T01:05:41;9.68;;;8.27;;
23720;SDS011;42950;52.134;5.578;2023-08-06T01:08:23;10.30;;;9.30;;
23720;SDS011;42950;52.134;5.578;2023-08-06T01:14:11;13.45;;;10.73;;
23720;SDS011;42950;52.134;5.578;2023-08-06T01:16:42;12.10;;;10.82;;
23720;SDS011;42950;52.134;5.578;2023-08-06T01:19:18;12.18;;;10.48;;
23720;SDS011;42950;52.134;5.578;2023-08-06T01:21:44;15.57;;;10.93;;
23720;SDS011;42950;52.134;5.578;2023-08-06T01:24:11;14.80;;;11.20;;
23720;SDS011;42950;52.134;5.578;2023-08-06T01:26:39;13.63;;;11.20;;
23720;SDS011;42950;52.134;5.578;2023-08-06T01:29:34;13.43;;;10.45;;
23720;SDS011;42950;52.134;5.578;2023-08-06T01:32:08;12.25;;;10.82;;
23720;SDS011;42950;52.134;5.578;2023-08-06T01:34:35;13.80;;;10.30;;
23720;SDS011;42950;52.134;5.578;2023-08-06T01:37:05;10.18;;;9.13;;
23720;SDS011;42950;52.134;5.578;2023-08-06T01:39:33;13.13;;;10.68;;
23720;SDS011;42950;52.134;5.578;2023-08-06T01:41:59;11.05;;;9.73;;
23720;SDS011;42950;52.134;5.578;2023-08-06T01:44:25;13.05;;;10.98;;
23720;SDS011;42950;52.134;5.578;2023-08-06T01:46:50;11.82;;;9.10;;
23720;SDS011;42950;52.134;5.578;2023-08-06T01:49:16;11.57;;;10.27;;
23720;SDS011;42950;52.134;5.578;2023-08-06T01:51:42;13.18;;;10.85;;
23720;SDS011;42950;52.134;5.578;2023-08-06T01:54:07;9.73;;;8.73;;
23720;SDS011;42950;52.134;5.578;2023-08-06T01:56:33;13.27;;;10.18;;
23720;SDS011;42950;52.134;5.578;2023-08-06T01:58:58;11.85;;;10.43;;
23720;SDS011;42950;52.134;5.578;2023-08-06T02:01:24;11.88;;;10.68;;
23720;SDS011;42950;52.134;5.578;2023-08-06T02:03:51;10.80;;;9.70;;
23720;SDS011;42950;52.134;5.578;2023-08-06T02:06:17;11.77;;;10.05;;
23720;SDS011;42950;52.134;5.578;2023-08-06T02:08:42;11.75;;;10.30;;
23720;SDS011;42950;52.134;5.578;2023-08-06T02:11:08;13.45;;;11.27;;
23720;SDS011;42950;52.134;5.578;2023-08-06T02:13:33;12.65;;;11.00;;
23720;SDS011;42950;52.134;5.578;2023-08-06T02:15:59;12.20;;;11.00;;
23720;SDS011;42950;52.134;5.578;2023-08-06T02:18:25;11.93;;;10.73;;
23720;SDS011;42950;52.134;5.578;2023-08-06T02:20:57;13.38;;;10.75;;
23720;SDS011;42950;52.134;5.578;2023-08-06T02:23:23;14.07;;;11.07;;
23720;SDS011;42950;52.134;5.578;2023-08-06T02:25:59;12.52;;;11.07;;
23720;SDS011;42950;52.134;5.578;2023-08-06T02:28:29;11.82;;;10.63;;
23720;SDS011;42950;52.134;5.578;2023-08-06T02:30:56;12.95;;;11.15;;
23720;SDS011;42950;52.134;5.578;2023-08-06T02:33:22;13.05;;;11.23;;
23720;SDS011;42950;52.134;5.578;2023-08-06T02:35:48;12.40;;;11.07;;
23720;SDS011;42950;52.134;5.578;2023-08-06T02:38:20;10.85;;;9.68;;
23720;SDS011;42950;52.134;5.578;2023-08-06T02:40:45;12.88;;;10.57;;
23720;SDS011;42950;52.134;5.578;2023-08-06T02:43:14;10.77;;;9.68;;
23720;SDS011;42950;52.134;5.578;2023-08-06T02:45:40;9.85;;;8.90;;
23720;SDS011;42950;52.134;5.578;2023-08-06T02:48:05;10.68;;;9.57;;
23720;SDS011;42950;52.134;5.578;2023-08-06T02:50:31;9.50;;;8.60;;
23720;SDS011;42950;52.134;5.578;2023-08-06T02:53:03;10.93;;;9.82;;
23720;SDS011;42950;52.134;5.578;2023-08-06T02:55:29;10.63;;;9.52;;
23720;SDS011;42950;52.134;5.578;2023-08-06T02:57:55;10.48;;;9.48;;
23720;SDS011;42950;52.134;5.578;2023-08-06T03:00:21;10.52;;;9.43;;
23720;SDS011;42950;52.134;5.578;2023-08-06T03:02:46;10.38;;;9.27;;
23720;SDS011;42950;52.134;5.578;2023-08-06T03:05:12;9.10;;;8.30;;
23720;SDS011;42950;52.134;5.578;2023-08-06T03:07:38;9.60;;;8.70;;
23720;SDS011;42950;52.134;5.578;2023-08-06T03:10:04;9.75;;;8.85;;
23720;SDS011;42950;52.134;5.578;2023-08-06T03:12:30;9.55;;;8.57;;
23720;SDS011;42950;52.134;5.578;2023-08-06T03:14:56;10.13;;;9.05;;
23720;SDS011;42950;52.134;5.578;2023-08-06T03:17:22;9.70;;;8.77;;
23720;SDS011;42950;52.134;5.578;2023-08-06T03:19:47;9.45;;;8.55;;
23720;SDS011;42950;52.134;5.578;2023-08-06T03:22:13;13.10;;;9.82;;
23720;SDS011;42950;52.134;5.578;2023-08-06T03:24:39;12.25;;;11.07;;
23720;SDS011;42950;52.134;5.578;2023-08-06T03:27:05;13.18;;;11.10;;
23720;SDS011;42950;52.134;5.578;2023-08-06T03:29:31;12.05;;;10.50;;
23720;SDS011;42950;52.134;5.578;2023-08-06T03:31:56;13.93;;;11.45;;
23720;SDS011;42950;52.134;5.578;2023-08-06T03:34:22;12.70;;;11.50;;
23720;SDS011;42950;52.134;5.578;2023-08-06T03:36:48;12.85;;;11.48;;
23720;SDS011;42950;52.134;5.578;2023-08-06T03:39:13;13.27;;;11.60;;
23720;SDS011;42950;52.134;5.578;2023-08-06T03:41:39;13.45;;;12.05;;
23720;SDS011;42950;52.134;5.578;2023-08-06T03:44:05;14.55;;;13.15;;
23720;SDS011;42950;52.134;5.578;2023-08-06T03:46:31;16.05;;;14.38;;
23720;SDS011;42950;52.134;5.578;2023-08-06T03:48:59;18.58;;;14.13;;
23720;SDS011;42950;52.134;5.578;2023-08-06T03:51:28;18.25;;;14.13;;
23720;SDS011;42950;52.134;5.578;2023-08-06T03:53:54;18.58;;;16.67;;
23720;SDS011;42950;52.134;5.578;2023-08-06T03:56:21;17.00;;;14.88;;
23720;SDS011;42950;52.134;5.578;2023-08-06T03:58:47;19.85;;;15.93;;
23720;SDS011;42950;52.134;5.578;2023-08-06T04:01:12;18.65;;;15.95;;
23720;SDS011;42950;52.134;5.578;2023-08-06T04:03:38;20.13;;;17.77;;
23720;SDS011;42950;52.134;5.578;2023-08-06T04:06:03;20.98;;;17.70;;
23720;SDS011;42950;52.134;5.578;2023-08-06T04:08:29;19.90;;;17.08;;
23720;SDS011;42950;52.134;5.578;2023-08-06T04:10:55;22.45;;;18.45;;
23720;SDS011;42950;52.134;5.578;2023-08-06T04:13:20;20.48;;;18.10;;
23720;SDS011;42950;52.134;5.578;2023-08-06T04:15:46;19.98;;;17.88;;
23720;SDS011;42950;52.134;5.578;2023-08-06T04:18:12;19.60;;;16.80;;
23720;SDS011;42950;52.134;5.578;2023-08-06T04:20:45;23.23;;;18.60;;
23720;SDS011;42950;52.134;5.578;2023-08-06T04:23:12;20.33;;;18.10;;
23720;SDS011;42950;52.134;5.578;2023-08-06T04:25:38;21.65;;;17.60;;
23720;SDS011;42950;52.134;5.578;2023-08-06T04:28:05;19.73;;;17.00;;
23720;SDS011;42950;52.134;5.578;2023-08-06T04:30:31;19.67;;;17.23;;
23720;SDS011;42950;52.134;5.578;2023-08-06T04:32:59;20.20;;;18.08;;
23720;SDS011;42950;52.134;5.578;2023-08-06T04:35:25;21.70;;;18.25;;
23720;SDS011;42950;52.134;5.578;2023-08-06T04:37:50;21.02;;;17.30;;
23720;SDS011;42950;52.134;5.578;2023-08-06T04:40:16;23.85;;;19.52;;
23720;SDS011;42950;52.134;5.578;2023-08-06T04:42:42;21.40;;;18.05;;
23720;SDS011;42950;52.134;5.578;2023-08-06T04:45:08;22.25;;;18.88;;
23720;SDS011;42950;52.134;5.578;2023-08-06T04:47:34;21.92;;;18.77;;
23720;SDS011;42950;52.134;5.578;2023-08-06T04:49:59;22.23;;;18.70;;
23720;SDS011;42950;52.134;5.578;2023-08-06T04:52:25;21.15;;;18.90;;
23720;SDS011;42950;52.134;5.578;2023-08-06T04:54:53;20.95;;;18.75;;
23720;SDS011;42950;52.134;5.578;2023-08-06T04:57:19;20.77;;;18.58;;
23720;SDS011;42950;52.134;5.578;2023-08-06T04:59:45;22.27;;;18.35;;
23720;SDS011;42950;52.134;5.578;2023-08-06T05:02:11;21.67;;;18.63;;
23720;SDS011;42950;52.134;5.578;2023-08-06T05:04:37;22.80;;;19.40;;
23720;SDS011;42950;52.134;5.578;2023-08-06T05:07:03;20.65;;;17.95;;
23720;SDS011;42950;52.134;5.578;2023-08-06T05:09:30;18.73;;;16.73;;
23720;SDS011;42950;52.134;5.578;2023-08-06T05:11:56;21.40;;;19.10;;
23720;SDS011;42950;52.134;5.578;2023-08-06T05:14:21;18.58;;;16.67;;
23720;SDS011;42950;52.134;5.578;2023-08-06T05:16:47;20.23;;;17.65;;
23720;SDS011;42950;52.134;5.578;2023-08-06T05:19:12;20.15;;;17.33;;
23720;SDS011;42950;52.134;5.578;2023-08-06T05:21:38;20.52;;;18.30;;
23720;SDS011;42950;52.134;5.578;2023-08-06T05:24:04;18.90;;;16.90;;
23720;SDS011;42950;52.134;5.578;2023-08-06T05:26:29;21.92;;;17.92;;
23720;SDS011;42950;52.134;5.578;2023-08-06T05:28:55;20.08;;;17.92;;
23720;SDS011;42950;52.134;5.578;2023-08-06T05:31:21;19.10;;;16.70;;
23720;SDS011;42950;52.134;5.578;2023-08-06T05:33:46;19.00;;;17.10;;
23720;SDS011;42950;52.134;5.578;2023-08-06T05:36:12;19.50;;;17.48;;
23720;SDS011;42950;52.134;5.578;2023-08-06T05:38:39;19.90;;;17.75;;
23720;SDS011;42950;52.134;5.578;2023-08-06T05:41:05;18.63;;;16.73;;
23720;SDS011;42950;52.134;5.578;2023-08-06T05:43:30;19.80;;;17.70;;
23720;SDS011;42950;52.134;5.578;2023-08-06T05:45:56;18.40;;;16.60;;
23720;SDS011;42950;52.134;5.578;2023-08-06T05:48:22;18.88;;;16.88;;
23720;SDS011;42950;52.134;5.578;2023-08-06T05:50:50;18.50;;;16.50;;
23720;SDS011;42950;52.134;5.578;2023-08-06T05:53:16;19.45;;;17.55;;
23720;SDS011;42950;52.134;5.578;2023-08-06T05:55:43;20.15;;;16.77;;
23720;SDS011;42950;52.134;5.578;2023-08-06T05:58:10;19.88;;;17.65;;
23720;SDS011;42950;52.134;5.578;2023-08-06T06:00:36;19.05;;;16.83;;
23720;SDS011;42950;52.134;5.578;2023-08-06T06:03:02;19.20;;;17.05;;
23720;SDS011;42950;52.134;5.578;2023-08-06T06:05:28;19.70;;;17.63;;
23720;SDS011;42950;52.134;5.578;2023-08-06T06:07:54;22.30;;;16.73;;
23720;SDS011;42950;52.134;5.578;2023-08-06T06:10:19;19.77;;;17.25;;
23720;SDS011;42950;52.134;5.578;2023-08-06T06:12:46;18.70;;;16.52;;
23720;SDS011;42950;52.134;5.578;2023-08-06T06:15:12;18.90;;;17.02;;
23720;SDS011;42950;52.134;5.578;2023-08-06T06:17:37;19.60;;;17.50;;
23720;SDS011;42950;52.134;5.578;2023-08-06T06:20:03;17.80;;;15.90;;
23720;SDS011;42950;52.134;5.578;2023-08-06T06:22:30;18.38;;;16.48;;
23720;SDS011;42950;52.134;5.578;2023-08-06T06:24:55;18.52;;;16.42;;
23720;SDS011;42950;52.134;5.578;2023-08-06T06:27:22;17.10;;;15.40;;
23720;SDS011;42950;52.134;5.578;2023-08-06T06:29:48;17.27;;;15.00;;
23720;SDS011;42950;52.134;5.578;2023-08-06T06:32:13;18.15;;;16.08;;
23720;SDS011;42950;52.134;5.578;2023-08-06T06:34:39;16.25;;;14.65;;
23720;SDS011;42950;52.134;5.578;2023-08-06T06:37:11;17.05;;;15.35;;
23720;SDS011;42950;52.134;5.578;2023-08-06T06:39:36;16.52;;;13.60;;
23720;SDS011;42950;52.134;5.578;2023-08-06T06:42:05;16.48;;;14.70;;
23720;SDS011;42950;52.134;5.578;2023-08-06T06:44:31;14.88;;;13.48;;
23720;SDS011;42950;52.134;5.578;2023-08-06T06:46:56;13.85;;;12.45;;
23720;SDS011;42950;52.134;5.578;2023-08-06T06:49:22;12.95;;;11.75;;
23720;SDS011;42950;52.134;5.578;2023-08-06T06:51:48;11.63;;;10.52;;
23720;SDS011;42950;52.134;5.578;2023-08-06T06:54:13;10.77;;;9.75;;
23720;SDS011;42950;52.134;5.578;2023-08-06T06:56:39;11.95;;;10.65;;
23720;SDS011;42950;52.134;5.578;2023-08-06T06:59:04;10.77;;;9.80;;
23720;SDS011;42950;52.134;5.578;2023-08-06T07:03:59;10.73;;;9.73;;
23720;SDS011;42950;52.134;5.578;2023-08-06T07:06:29;11.70;;;10.60;;
23720;SDS011;42950;52.134;5.578;2023-08-06T07:08:55;10.13;;;9.20;;
23720;SDS011;42950;52.134;5.578;2023-08-06T07:11:21;10.68;;;8.63;;
23720;SDS011;42950;52.134;5.578;2023-08-06T07:13:49;11.00;;;9.43;;
23720;SDS011;42950;52.134;5.578;2023-08-06T07:16:20;10.25;;;9.25;;
23720;SDS011;42950;52.134;5.578;2023-08-06T07:18:50;9.23;;;8.43;;
23720;SDS011;42950;52.134;5.578;2023-08-06T07:21:17;10.48;;;9.48;;
23720;SDS011;42950;52.134;5.578;2023-08-06T07:23:43;10.02;;;9.13;;
23720;SDS011;42950;52.134;5.578;2023-08-06T07:26:09;9.88;;;9.07;;
23720;SDS011;42950;52.134;5.578;2023-08-06T07:28:34;11.27;;;10.00;;
23720;SDS011;42950;52.134;5.578;2023-08-06T07:31:00;10.45;;;9.45;;
23720;SDS011;42950;52.134;5.578;2023-08-06T07:33:29;11.90;;;10.77;;
23720;SDS011;42950;52.134;5.578;2023-08-06T07:35:55;11.02;;;9.82;;
23720;SDS011;42950;52.134;5.578;2023-08-06T07:38:20;11.32;;;10.30;;
23720;SDS011;42950;52.134;5.578;2023-08-06T07:40:47;11.75;;;10.50;;
23720;SDS011;42950;52.134;5.578;2023-08-06T07:43:13;12.60;;;11.30;;
23720;SDS011;42950;52.134;5.578;2023-08-06T07:45:39;14.68;;;12.85;;
23720;SDS011;42950;52.134;5.578;2023-08-06T07:48:04;13.90;;;12.23;;
23720;SDS011;42950;52.134;5.578;2023-08-06T07:50:30;13.32;;;11.85;;
23720;SDS011;42950;52.134;5.578;2023-08-06T07:52:57;13.23;;;11.98;;
23720;SDS011;42950;52.134;5.578;2023-08-06T07:55:23;16.98;;;12.10;;
23720;SDS011;42950;52.134;5.578;2023-08-06T07:57:49;13.95;;;12.52;;
23720;SDS011;42950;52.134;5.578;2023-08-06T08:00:14;13.65;;;12.25;;
23720;SDS011;42950;52.134;5.578;2023-08-06T08:02:40;15.25;;;12.90;;
23720;SDS011;42950;52.134;5.578;2023-08-06T08:05:06;14.75;;;13.10;;
23720;SDS011;42950;52.134;5.578;2023-08-06T08:07:34;15.73;;;14.07;;
23720;SDS011;42950;52.134;5.578;2023-08-06T08:10:00;15.10;;;13.55;;
23720;SDS011;42950;52.134;5.578;2023-08-06T08:12:25;18.60;;;15.80;;
23720;SDS011;42950;52.134;5.578;2023-08-06T08:14:51;19.42;;;16.00;;
23720;SDS011;42950;52.134;5.578;2023-08-06T08:17:16;17.70;;;15.90;;
23720;SDS011;42950;52.134;5.578;2023-08-06T08:19:42;19.73;;;16.23;;
23720;SDS011;42950;52.134;5.578;2023-08-06T08:22:08;17.95;;;16.15;;
23720;SDS011;42950;52.134;5.578;2023-08-06T08:24:34;22.45;;;16.65;;
23720;SDS011;42950;52.134;5.578;2023-08-06T08:27:00;19.52;;;17.50;;
23720;SDS011;42950;52.134;5.578;2023-08-06T08:29:26;18.27;;;16.38;;
23720;SDS011;42950;52.134;5.578;2023-08-06T08:31:51;21.65;;;17.60;;
23720;SDS011;42950;52.134;5.578;2023-08-06T08:34:18;20.30;;;17.45;;
23720;SDS011;42950;52.134;5.578;2023-08-06T08:36:50;19.88;;;17.73;;
23720;SDS011;42950;52.134;5.578;2023-08-06T08:39:15;19.35;;;17.17;;
23720;SDS011;42950;52.134;5.578;2023-08-06T08:41:41;20.13;;;16.05;;
23720;SDS011;42950;52.134;5.578;2023-08-06T08:44:07;18.25;;;16.33;;
23720;SDS011;42950;52.134;5.578;2023-08-06T08:46:38;17.33;;;15.77;;
23720;SDS011;42950;52.134;5.578;2023-08-06T08:49:05;18.70;;;15.55;;
23720;SDS011;42950;52.134;5.578;2023-08-06T08:51:32;17.77;;;15.88;;
23720;SDS011;42950;52.134;5.578;2023-08-06T08:53:59;18.98;;;16.98;;
23720;SDS011;42950;52.134;5.578;2023-08-06T08:56:33;19.90;;;17.83;;
23720;SDS011;42950;52.134;5.578;2023-08-06T08:58:58;19.02;;;17.13;;
23720;SDS011;42950;52.134;5.578;2023-08-06T09:01:26;19.60;;;17.50;;
23720;SDS011;42950;52.134;5.578;2023-08-06T09:03:54;20.65;;;18.48;;
23720;SDS011;42950;52.134;5.578;2023-08-06T09:06:21;20.52;;;18.38;;
23720;SDS011;42950;52.134;5.578;2023-08-06T09:08:51;20.77;;;18.58;;
23720;SDS011;42950;52.134;5.578;2023-08-06T09:11:27;24.55;;;19.67;;
23720;SDS011;42950;52.134;5.578;2023-08-06T09:14:06;21.95;;;19.67;;
23720;SDS011;42950;52.134;5.578;2023-08-06T09:16:36;24.20;;;19.88;;
23720;SDS011;42950;52.134;5.578;2023-08-06T09:19:10;21.88;;;19.58;;
23720;SDS011;42950;52.134;5.578;2023-08-06T09:21:43;21.83;;;19.60;;
23720;SDS011;42950;52.134;5.578;2023-08-06T09:24:13;21.55;;;19.20;;
23720;SDS011;42950;52.134;5.578;2023-08-06T09:26:40;9.07;;;7.43;;
23720;SDS011;42950;52.134;5.578;2023-08-06T09:29:07;5.00;;;4.53;;
23720;SDS011;42950;52.134;5.578;2023-08-06T09:34:10;4.50;;;2.90;;
23720;SDS011;42950;52.134;5.578;2023-08-06T09:36:46;3.05;;;1.90;;
23720;SDS011;42950;52.134;5.578;2023-08-06T09:39:15;1.85;;;1.75;;
23720;SDS011;42950;52.134;5.578;2023-08-06T09:41:45;2.53;;;1.77;;
23720;SDS011;42950;52.134;5.578;2023-08-06T09:44:19;2.03;;;1.58;;
23720;SDS011;42950;52.134;5.578;2023-08-06T09:46:53;1.92;;;1.52;;
23720;SDS011;42950;52.134;5.578;2023-08-06T09:49:27;2.08;;;1.40;;
23720;SDS011;42950;52.134;5.578;2023-08-06T09:51:55;2.03;;;1.38;;
23720;SDS011;42950;52.134;5.578;2023-08-06T09:54:23;3.08;;;1.30;;
23720;SDS011;42950;52.134;5.578;2023-08-06T09:56:55;3.67;;;2.25;;
23720;SDS011;42950;52.134;5.578;2023-08-06T09:59:23;3.90;;;2.20;;
23720;SDS011;42950;52.134;5.578;2023-08-06T10:01:49;5.65;;;2.40;;
23720;SDS011;42950;52.134;5.578;2023-08-06T10:04:16;2.83;;;2.53;;
23720;SDS011;42950;52.134;5.578;2023-08-06T10:06:43;3.83;;;3.05;;
23720;SDS011;42950;52.134;5.578;2023-08-06T10:09:12;6.85;;;4.07;;
23720;SDS011;42950;52.134;5.578;2023-08-06T10:11:38;4.25;;;3.45;;
23720;SDS011;42950;52.134;5.578;2023-08-06T10:14:15;4.70;;;4.00;;
23720;SDS011;42950;52.134;5.578;2023-08-06T10:16:45;5.07;;;3.90;;
23720;SDS011;42950;52.134;5.578;2023-08-06T10:19:12;4.00;;;3.58;;
23720;SDS011;42950;52.134;5.578;2023-08-06T10:21:40;4.53;;;3.90;;
23720;SDS011;42950;52.134;5.578;2023-08-06T10:24:09;3.70;;;3.38;;
23720;SDS011;42950;52.134;5.578;2023-08-06T10:26:39;7.43;;;3.95;;
23720;SDS011;42950;52.134;5.578;2023-08-06T10:32:05;5.45;;;3.30;;
23720;SDS011;42950;52.134;5.578;2023-08-06T10:37:22;3.63;;;3.22;;
23720;SDS011;42950;52.134;5.578;2023-08-06T10:39:51;4.05;;;3.72;;
23720;SDS011;42950;52.134;5.578;2023-08-06T10:42:35;5.30;;;4.10;;
23720;SDS011;42950;52.134;5.578;2023-08-06T10:45:14;7.80;;;4.32;;
23720;SDS011;42950;52.134;5.578;2023-08-06T10:47:45;4.93;;;4.53;;
23720;SDS011;42950;52.134;5.578;2023-08-06T10:50:13;5.93;;;5.30;;
23720;SDS011;42950;52.134;5.578;2023-08-06T10:52:43;5.40;;;4.68;;
23720;SDS011;42950;52.134;5.578;2023-08-06T10:55:10;6.47;;;4.45;;
23720;SDS011;42950;52.134;5.578;2023-08-06T10:57:36;5.95;;;4.53;;
23720;SDS011;42950;52.134;5.578;2023-08-06T11:00:04;5.28;;;4.60;;
23720;SDS011;42950;52.134;5.578;2023-08-06T11:02:35;4.82;;;4.30;;
23720;SDS011;42950;52.134;5.578;2023-08-06T11:05:05;4.95;;;4.55;;
23720;SDS011;42950;52.134;5.578;2023-08-06T11:07:35;7.15;;;5.13;;
23720;SDS011;42950;52.134;5.578;2023-08-06T11:10:05;5.90;;;4.93;;
23720;SDS011;42950;52.134;5.578;2023-08-06T11:12:35;6.20;;;5.25;;
23720;SDS011;42950;52.134;5.578;2023-08-06T11:15:05;5.03;;;4.60;;
23720;SDS011;42950;52.134;5.578;2023-08-06T11:17:33;6.28;;;4.68;;
23720;SDS011;42950;52.134;5.578;2023-08-06T11:20:02;7.55;;;4.43;;
23720;SDS011;42950;52.134;5.578;2023-08-06T11:22:29;6.63;;;4.35;;
23720;SDS011;42950;52.134;5.578;2023-08-06T11:24:56;5.93;;;4.80;;
23720;SDS011;42950;52.134;5.578;2023-08-06T11:27:25;5.75;;;4.18;;
23720;SDS011;42950;52.134;5.578;2023-08-06T11:29:52;5.95;;;4.05;;
23720;SDS011;42950;52.134;5.578;2023-08-06T11:32:18;6.32;;;4.82;;
23720;SDS011;42950;52.134;5.578;2023-08-06T11:34:44;6.68;;;4.80;;
23720;SDS011;42950;52.134;5.578;2023-08-06T11:37:10;6.30;;;5.13;;
23720;SDS011;42950;52.134;5.578;2023-08-06T11:39:36;6.13;;;5.18;;
23720;SDS011;42950;52.134;5.578;2023-08-06T11:42:06;6.65;;;5.18;;
23720;SDS011;42950;52.134;5.578;2023-08-06T11:44:34;6.03;;;5.00;;
23720;SDS011;42950;52.134;5.578;2023-08-06T11:47:02;6.38;;;5.60;;
23720;SDS011;42950;52.134;5.578;2023-08-06T11:49:41;7.18;;;6.15;;
23720;SDS011;42950;52.134;5.578;2023-08-06T11:54:40;8.80;;;5.85;;
23720;SDS011;42950;52.134;5.578;2023-08-06T11:57:06;7.95;;;5.70;;
23720;SDS011;42950;52.134;5.578;2023-08-06T11:59:32;6.55;;;5.00;;
23720;SDS011;42950;52.134;5.578;2023-08-06T12:02:02;9.10;;;5.32;;
23720;SDS011;42950;52.134;5.578;2023-08-06T12:04:56;8.65;;;5.05;;
23720;SDS011;42950;52.134;5.578;2023-08-06T12:07:28;6.63;;;4.97;;
23720;SDS011;42950;52.134;5.578;2023-08-06T12:09:55;8.80;;;5.65;;
23720;SDS011;42950;52.134;5.578;2023-08-06T12:12:22;8.70;;;5.72;;
23720;SDS011;42950;52.134;5.578;2023-08-06T12:14:48;6.20;;;4.65;;
23720;SDS011;42950;52.134;5.578;2023-08-06T12:17:14;10.25;;;4.28;;
23720;SDS011;42950;52.134;5.578;2023-08-06T12:19:40;10.30;;;4.63;;
23720;SDS011;42950;52.134;5.578;2023-08-06T12:22:07;5.22;;;3.95;;
23720;SDS011;42950;52.134;5.578;2023-08-06T12:24:33;7.15;;;4.63;;
23720;SDS011;42950;52.134;5.578;2023-08-06T12:26:59;7.32;;;4.35;;
23720;SDS011;42950;52.134;5.578;2023-08-06T12:29:27;7.50;;;4.55;;
23720;SDS011;42950;52.134;5.578;2023-08-06T12:31:53;6.68;;;4.22;;
23720;SDS011;42950;52.134;5.578;2023-08-06T12:34:19;7.93;;;4.20;;
23720;SDS011;42950;52.134;5.578;2023-08-06T12:36:45;6.55;;;4.22;;
23720;SDS011;42950;52.134;5.578;2023-08-06T12:39:11;5.03;;;4.00;;
23720;SDS011;42950;52.134;5.578;2023-08-06T12:41:37;5.13;;;3.72;;
23720;SDS011;42950;52.134;5.578;2023-08-06T12:44:03;7.72;;;3.38;;
23720;SDS011;42950;52.134;5.578;2023-08-06T12:46:29;5.00;;;3.78;;
23720;SDS011;42950;52.134;5.578;2023-08-06T12:48:56;5.32;;;3.55;;
23720;SDS011;42950;52.134;5.578;2023-08-06T12:51:23;7.50;;;4.00;;
23720;SDS011;42950;52.134;5.578;2023-08-06T12:53:50;5.00;;;3.60;;
23720;SDS011;42950;52.134;5.578;2023-08-06T12:56:16;8.02;;;3.72;;
23720;SDS011;42950;52.134;5.578;2023-08-06T12:58:42;6.28;;;3.58;;
23720;SDS011;42950;52.134;5.578;2023-08-06T13:01:08;5.93;;;3.60;;
23720;SDS011;42950;52.134;5.578;2023-08-06T13:03:34;5.40;;;3.25;;
23720;SDS011;42950;52.134;5.578;2023-08-06T13:05:59;7.93;;;3.63;;
23720;SDS011;42950;52.134;5.578;2023-08-06T13:08:25;7.78;;;3.80;;
23720;SDS011;42950;52.134;5.578;2023-08-06T13:10:51;5.60;;;3.63;;
23720;SDS011;42950;52.134;5.578;2023-08-06T13:13:17;5.97;;;3.80;;
23720;SDS011;42950;52.134;5.578;2023-08-06T13:15:43;5.97;;;3.72;;
23720;SDS011;42950;52.134;5.578;2023-08-06T13:18:09;5.30;;;3.78;;
23720;SDS011;42950;52.134;5.578;2023-08-06T13:20:37;6.05;;;3.72;;
23720;SDS011;42950;52.134;5.578;2023-08-06T13:23:05;4.45;;;2.88;;
23720;SDS011;42950;52.134;5.578;2023-08-06T13:25:31;3.95;;;3.20;;
23720;SDS011;42950;52.134;5.578;2023-08-06T13:28:02;3.30;;;3.00;;
23720;SDS011;42950;52.134;5.578;2023-08-06T13:30:29;5.43;;;3.80;;
23720;SDS011;42950;52.134;5.578;2023-08-06T13:32:54;5.57;;;3.58;;
23720;SDS011;42950;52.134;5.578;2023-08-06T13:35:22;4.32;;;3.60;;
23720;SDS011;42950;52.134;5.578;2023-08-06T13:37:49;4.13;;;3.55;;
23720;SDS011;42950;52.134;5.578;2023-08-06T13:40:15;7.25;;;3.97;;
23720;SDS011;42950;52.134;5.578;2023-08-06T13:42:40;7.97;;;4.72;;
23720;SDS011;42950;52.134;5.578;2023-08-06T13:45:06;6.20;;;5.07;;
23720;SDS011;42950;52.134;5.578;2023-08-06T13:47:35;6.90;;;5.10;;
23720;SDS011;42950;52.134;5.578;2023-08-06T13:50:01;7.38;;;5.53;;
23720;SDS011;42950;52.134;5.578;2023-08-06T13:52:28;5.72;;;5.15;;
23720;SDS011;42950;52.134;5.578;2023-08-06T13:54:54;10.65;;;6.20;;
23720;SDS011;42950;52.134;5.578;2023-08-06T13:57:19;8.65;;;5.75;;
23720;SDS011;42950;52.134;5.578;2023-08-06T13:59:45;8.43;;;5.20;;
23720;SDS011;42950;52.134;5.578;2023-08-06T14:02:12;9.10;;;5.32;;
23720;SDS011;42950;52.134;5.578;2023-08-06T14:04:38;6.38;;;4.60;;
23720;SDS011;42950;52.134;5.578;2023-08-06T14:07:05;7.03;;;4.93;;
23720;SDS011;42950;52.134;5.578;2023-08-06T14:09:30;7.88;;;4.97;;
23720;SDS011;42950;52.134;5.578;2023-08-06T14:11:56;6.53;;;3.90;;
23720;SDS011;42950;52.134;5.578;2023-08-06T14:14:25;6.85;;;4.07;;
23720;SDS011;42950;52.134;5.578;2023-08-06T14:16:56;5.93;;;4.20;;
23720;SDS011;42950;52.134;5.578;2023-08-06T14:19:22;6.72;;;4.10;;
23720;SDS011;42950;52.134;5.578;2023-08-06T14:21:47;6.10;;;4.10;;
23720;SDS011;42950;52.134;5.578;2023-08-06T14:24:13;5.10;;;4.45;;
23720;SDS011;42950;52.134;5.578;2023-08-06T14:26:39;8.48;;;4.80;;
23720;SDS011;42950;52.134;5.578;2023-08-06T14:29:06;6.63;;;4.60;;
23720;SDS011;42950;52.134;5.578;2023-08-06T14:31:32;6.15;;;4.80;;
23720;SDS011;42950;52.134;5.578;2023-08-06T14:33:57;7.28;;;4.93;;
23720;SDS011;42950;52.134;5.578;2023-08-06T14:36:23;7.88;;;5.25;;
23720;SDS011;42950;52.134;5.578;2023-08-06T14:38:49;6.85;;;4.78;;
23720;SDS011;42950;52.134;5.578;2023-08-06T14:41:14;5.43;;;4.68;;
23720;SDS011;42950;52.134;5.578;2023-08-06T14:43:42;6.53;;;4.55;;
23720;SDS011;42950;52.134;5.578;2023-08-06T14:46:07;6.85;;;4.65;;
23720;SDS011;42950;52.134;5.578;2023-08-06T14:48:33;5.78;;;5.10;;
23720;SDS011;42950;52.134;5.578;2023-08-06T14:50:59;9.15;;;5.07;;